KATW/ATW METAR and TAF weather

Enter ICAO airport designator
Station Type Date Time Source
KATW METAR 2019/10/21 21:45 UTC NOAA

KATW 212145Z 16010KT 10SM SCT023 15/14 A2929


Station Type Date Time Source
KATW Decoded METAR 2019/10/21 21:45 UTC NOAA

Appleton / Outagamie, WI, United States (KATW) 44-15N 088-31W
Oct 21, 2019 - 05:45 PM EDT / 2019.10.21 2145 UTC
Wind: from the SSE (160 degrees) at 12 MPH (10 KT):0
Visibility: 10 mile(s):0
Sky conditions: partly cloudy
Temperature: 59 F (15 C)
Dew Point: 57 F (14 C)
Relative Humidity: 93%
Pressure (altimeter): 29.29 in. Hg (991 hPa)
ob: KATW 212145Z 16010KT 10SM SCT023 15/14 A2929
cycle: 22

Station Type Date Time Source
KATW TAF 2019/10/21 22:06 UTC NOAA

TAF
AMD KATW 212204Z 2122/2218 17013G20KT P6SM VCSH BKN035 WS020/20040KT
FM220000 18013G20KT P6SM BKN035
FM220800 18013G20KT P6SM -SHRA BKN015 OVC024
FM221000 19013G23KT 5SM -SHRA OVC009
FM221500 23016G28KT 6SM -SHRA BR OVC015

Example: see airport list